SLCA

Details ICAO SLCA
Name Camiri
Region Bolivia
Timezone America/La_Paz (UTC-4.0)
Plans Departing 0
Arriving 0
Stats Elevation 2,615 ft / 797 m (AMSL)
Location -20.000279° -63.527500°
Runways 1
Magnetic Variation 10.918° W
Sunrise 2017-12-13 09:30:03 UTC / 2017-12-13 05:30:03 Local
Sunset 2017-12-13 22:49:34 UTC / 2017-12-13 18:49:34 Local
Advertisement - Login to hide

Runways

ID Width Length Bearing (true) Bearing (mag) Surface Threshold Offset Overrun Length
15 56 ft / 17 m 3,940 ft / 1,201 m 144.00° 154.92° Concrete 0 ft / 0 m 0 ft / 0 m
33 56 ft / 17 m 3,940 ft / 1,201 m 324.00° 334.92° Concrete 0 ft / 0 m 0 ft / 0 m

Map

Weather


0- 5 10 15 20 25 30 35+ Temperature / ° C

Clouds and Precipitation
Forecast for 2017-12-14 00:00 UTC. Updated an hour ago

Ground ~20,000 ft ~40,000 ft Winds

METAR

SLCA 132000Z 36005KT 9999 NSC 36/15 Q1010

TAF

Not found
Warning: Do not use this data for real-world aviation or navigation. No guarantee of current accuracy is given.